sensor_id;sensor_type;location;lat;lon;timestamp;P1;durP1;ratioP1;P2;durP2;ratioP2
1467;SDS011;727;48.892;9.544;2022-09-29T00:00:12;4.38;;;3.97;;
1467;SDS011;727;48.892;9.544;2022-09-29T00:02:41;10.52;;;4.32;;
1467;SDS011;727;48.892;9.544;2022-09-29T00:05:09;5.40;;;3.13;;
1467;SDS011;727;48.892;9.544;2022-09-29T00:07:36;4.15;;;3.75;;
1467;SDS011;727;48.892;9.544;2022-09-29T00:10:03;7.13;;;3.90;;
1467;SDS011;727;48.892;9.544;2022-09-29T00:12:30;12.30;;;4.50;;
1467;SDS011;727;48.892;9.544;2022-09-29T00:14:57;7.45;;;3.90;;
1467;SDS011;727;48.892;9.544;2022-09-29T00:17:23;4.53;;;4.07;;
1467;SDS011;727;48.892;9.544;2022-09-29T00:19:50;3.72;;;3.42;;
1467;SDS011;727;48.892;9.544;2022-09-29T00:22:18;4.55;;;4.15;;
1467;SDS011;727;48.892;9.544;2022-09-29T00:24:45;7.22;;;4.90;;
1467;SDS011;727;48.892;9.544;2022-09-29T00:27:13;5.00;;;3.90;;
1467;SDS011;727;48.892;9.544;2022-09-29T00:29:40;8.25;;;4.05;;
1467;SDS011;727;48.892;9.544;2022-09-29T00:32:06;6.40;;;4.13;;
1467;SDS011;727;48.892;9.544;2022-09-29T00:34:33;4.22;;;3.90;;
1467;SDS011;727;48.892;9.544;2022-09-29T00:37:00;4.72;;;3.88;;
1467;SDS011;727;48.892;9.544;2022-09-29T00:39:28;5.72;;;4.10;;
1467;SDS011;727;48.892;9.544;2022-09-29T00:41:55;7.47;;;3.85;;
1467;SDS011;727;48.892;9.544;2022-09-29T00:47:28;3.55;;;3.25;;
1467;SDS011;727;48.892;9.544;2022-09-29T00:49:56;9.27;;;4.25;;
1467;SDS011;727;48.892;9.544;2022-09-29T00:52:27;3.25;;;3.00;;
1467;SDS011;727;48.892;9.544;2022-09-29T00:55:00;6.63;;;3.28;;
1467;SDS011;727;48.892;9.544;2022-09-29T00:57:30;6.68;;;4.60;;
1467;SDS011;727;48.892;9.544;2022-09-29T01:00:04;5.75;;;4.90;;
1467;SDS011;727;48.892;9.544;2022-09-29T01:02:33;4.57;;;4.00;;
1467;SDS011;727;48.892;9.544;2022-09-29T01:05:04;6.35;;;4.40;;
1467;SDS011;727;48.892;9.544;2022-09-29T01:07:34;4.45;;;4.05;;
1467;SDS011;727;48.892;9.544;2022-09-29T01:10:02;6.70;;;4.85;;
1467;SDS011;727;48.892;9.544;2022-09-29T01:12:30;5.63;;;5.13;;
1467;SDS011;727;48.892;9.544;2022-09-29T01:14:57;4.88;;;4.35;;
1467;SDS011;727;48.892;9.544;2022-09-29T01:17:26;4.53;;;4.22;;
1467;SDS011;727;48.892;9.544;2022-09-29T01:19:54;4.25;;;3.85;;
1467;SDS011;727;48.892;9.544;2022-09-29T01:22:33;8.38;;;4.45;;
1467;SDS011;727;48.892;9.544;2022-09-29T01:28:32;12.10;;;4.20;;
1467;SDS011;727;48.892;9.544;2022-09-29T01:31:22;6.07;;;3.83;;
1467;SDS011;727;48.892;9.544;2022-09-29T01:33:56;4.40;;;4.00;;
1467;SDS011;727;48.892;9.544;2022-09-29T01:36:33;6.25;;;3.40;;
1467;SDS011;727;48.892;9.544;2022-09-29T01:39:09;6.28;;;3.70;;
1467;SDS011;727;48.892;9.544;2022-09-29T01:41:45;8.05;;;3.95;;
1467;SDS011;727;48.892;9.544;2022-09-29T01:44:19;7.70;;;4.67;;
1467;SDS011;727;48.892;9.544;2022-09-29T01:46:51;5.78;;;4.93;;
1467;SDS011;727;48.892;9.544;2022-09-29T01:49:21;4.03;;;3.60;;
1467;SDS011;727;48.892;9.544;2022-09-29T01:51:51;5.15;;;4.10;;
1467;SDS011;727;48.892;9.544;2022-09-29T01:54:21;3.85;;;3.55;;
1467;SDS011;727;48.892;9.544;2022-09-29T01:56:55;5.10;;;3.80;;
1467;SDS011;727;48.892;9.544;2022-09-29T01:59:26;8.73;;;4.90;;
1467;SDS011;727;48.892;9.544;2022-09-29T02:02:01;7.03;;;4.20;;
1467;SDS011;727;48.892;9.544;2022-09-29T02:04:35;4.57;;;4.13;;
1467;SDS011;727;48.892;9.544;2022-09-29T02:07:07;7.93;;;3.85;;
1467;SDS011;727;48.892;9.544;2022-09-29T02:09:40;3.58;;;3.25;;
1467;SDS011;727;48.892;9.544;2022-09-29T02:12:11;3.58;;;3.25;;
1467;SDS011;727;48.892;9.544;2022-09-29T02:14:43;4.25;;;3.83;;
1467;SDS011;727;48.892;9.544;2022-09-29T02:17:17;5.00;;;4.18;;
1467;SDS011;727;48.892;9.544;2022-09-29T02:19:45;4.93;;;3.72;;
1467;SDS011;727;48.892;9.544;2022-09-29T02:22:17;3.83;;;3.40;;
1467;SDS011;727;48.892;9.544;2022-09-29T02:24:44;5.05;;;4.18;;
1467;SDS011;727;48.892;9.544;2022-09-29T02:27:11;4.03;;;3.63;;
1467;SDS011;727;48.892;9.544;2022-09-29T02:29:38;4.18;;;3.78;;
1467;SDS011;727;48.892;9.544;2022-09-29T02:32:06;5.45;;;3.60;;
1467;SDS011;727;48.892;9.544;2022-09-29T02:34:36;4.40;;;3.70;;
1467;SDS011;727;48.892;9.544;2022-09-29T02:37:09;5.65;;;4.30;;
1467;SDS011;727;48.892;9.544;2022-09-29T02:39:45;4.68;;;4.00;;
1467;SDS011;727;48.892;9.544;2022-09-29T02:42:21;5.50;;;3.97;;
1467;SDS011;727;48.892;9.544;2022-09-29T02:44:57;4.05;;;3.75;;
1467;SDS011;727;48.892;9.544;2022-09-29T02:47:49;6.00;;;4.60;;
1467;SDS011;727;48.892;9.544;2022-09-29T02:50:32;4.30;;;3.97;;
1467;SDS011;727;48.892;9.544;2022-09-29T02:53:08;4.72;;;4.32;;
1467;SDS011;727;48.892;9.544;2022-09-29T02:55:42;5.70;;;5.20;;
1467;SDS011;727;48.892;9.544;2022-09-29T02:58:17;4.85;;;3.85;;
1467;SDS011;727;48.892;9.544;2022-09-29T03:00:46;4.53;;;3.38;;
1467;SDS011;727;48.892;9.544;2022-09-29T03:03:13;4.93;;;4.53;;
1467;SDS011;727;48.892;9.544;2022-09-29T03:05:41;4.35;;;3.95;;
1467;SDS011;727;48.892;9.544;2022-09-29T03:08:08;4.97;;;4.47;;
1467;SDS011;727;48.892;9.544;2022-09-29T03:10:38;5.22;;;3.95;;
1467;SDS011;727;48.892;9.544;2022-09-29T03:13:04;4.50;;;4.10;;
1467;SDS011;727;48.892;9.544;2022-09-29T03:15:31;5.45;;;4.15;;
1467;SDS011;727;48.892;9.544;2022-09-29T03:17:58;4.88;;;4.22;;
1467;SDS011;727;48.892;9.544;2022-09-29T03:20:26;8.13;;;4.57;;
1467;SDS011;727;48.892;9.544;2022-09-29T03:22:55;5.10;;;4.60;;
1467;SDS011;727;48.892;9.544;2022-09-29T03:25:22;6.18;;;5.00;;
1467;SDS011;727;48.892;9.544;2022-09-29T03:27:49;4.75;;;4.25;;
1467;SDS011;727;48.892;9.544;2022-09-29T03:30:16;4.65;;;4.15;;
1467;SDS011;727;48.892;9.544;2022-09-29T03:32:43;4.32;;;3.92;;
1467;SDS011;727;48.892;9.544;2022-09-29T03:35:10;6.78;;;6.18;;
1467;SDS011;727;48.892;9.544;2022-09-29T03:37:37;5.10;;;4.22;;
1467;SDS011;727;48.892;9.544;2022-09-29T03:40:05;9.77;;;4.22;;
1467;SDS011;727;48.892;9.544;2022-09-29T03:42:33;4.32;;;4.00;;
1467;SDS011;727;48.892;9.544;2022-09-29T03:45:00;11.60;;;5.00;;
1467;SDS011;727;48.892;9.544;2022-09-29T03:47:27;6.13;;;4.47;;
1467;SDS011;727;48.892;9.544;2022-09-29T03:49:53;5.07;;;4.18;;
1467;SDS011;727;48.892;9.544;2022-09-29T03:52:20;7.40;;;3.88;;
1467;SDS011;727;48.892;9.544;2022-09-29T03:54:47;5.43;;;4.20;;
1467;SDS011;727;48.892;9.544;2022-09-29T03:57:15;5.68;;;3.33;;
1467;SDS011;727;48.892;9.544;2022-09-29T03:59:41;5.25;;;4.78;;
1467;SDS011;727;48.892;9.544;2022-09-29T04:02:08;5.85;;;3.95;;
1467;SDS011;727;48.892;9.544;2022-09-29T04:04:35;3.95;;;3.45;;
1467;SDS011;727;48.892;9.544;2022-09-29T04:07:01;4.95;;;3.80;;
1467;SDS011;727;48.892;9.544;2022-09-29T04:09:28;4.25;;;3.90;;
1467;SDS011;727;48.892;9.544;2022-09-29T04:11:55;4.07;;;3.42;;
1467;SDS011;727;48.892;9.544;2022-09-29T04:14:23;4.05;;;3.58;;
1467;SDS011;727;48.892;9.544;2022-09-29T04:16:50;5.30;;;3.85;;
1467;SDS011;727;48.892;9.544;2022-09-29T04:19:16;4.97;;;4.32;;
1467;SDS011;727;48.892;9.544;2022-09-29T04:21:43;4.28;;;3.88;;
1467;SDS011;727;48.892;9.544;2022-09-29T04:24:11;3.95;;;3.65;;
1467;SDS011;727;48.892;9.544;2022-09-29T04:26:37;5.63;;;4.00;;
1467;SDS011;727;48.892;9.544;2022-09-29T04:29:05;4.50;;;4.10;;
1467;SDS011;727;48.892;9.544;2022-09-29T04:31:33;4.32;;;3.92;;
1467;SDS011;727;48.892;9.544;2022-09-29T04:34:00;5.03;;;4.53;;
1467;SDS011;727;48.892;9.544;2022-09-29T04:36:27;4.20;;;3.80;;
1467;SDS011;727;48.892;9.544;2022-09-29T04:38:54;4.90;;;4.47;;
1467;SDS011;727;48.892;9.544;2022-09-29T04:41:21;5.03;;;3.70;;
1467;SDS011;727;48.892;9.544;2022-09-29T04:43:48;5.03;;;4.53;;
1467;SDS011;727;48.892;9.544;2022-09-29T04:46:15;4.85;;;4.40;;
1467;SDS011;727;48.892;9.544;2022-09-29T04:48:43;5.60;;;3.38;;
1467;SDS011;727;48.892;9.544;2022-09-29T04:51:09;5.15;;;4.65;;
1467;SDS011;727;48.892;9.544;2022-09-29T04:53:36;7.20;;;5.03;;
1467;SDS011;727;48.892;9.544;2022-09-29T04:56:03;5.70;;;5.07;;
1467;SDS011;727;48.892;9.544;2022-09-29T04:58:31;20.98;;;18.85;;
1467;SDS011;727;48.892;9.544;2022-09-29T05:01:03;7.35;;;6.25;;
1467;SDS011;727;48.892;9.544;2022-09-29T05:03:31;5.55;;;5.05;;
1467;SDS011;727;48.892;9.544;2022-09-29T05:05:59;6.57;;;5.25;;
1467;SDS011;727;48.892;9.544;2022-09-29T05:08:26;8.23;;;4.50;;
1467;SDS011;727;48.892;9.544;2022-09-29T05:10:52;6.88;;;4.35;;
1467;SDS011;727;48.892;9.544;2022-09-29T05:13:19;4.88;;;4.32;;
1467;SDS011;727;48.892;9.544;2022-09-29T05:15:46;6.28;;;4.50;;
1467;SDS011;727;48.892;9.544;2022-09-29T05:18:13;6.47;;;5.88;;
1467;SDS011;727;48.892;9.544;2022-09-29T05:20:39;6.68;;;5.45;;
1467;SDS011;727;48.892;9.544;2022-09-29T05:23:07;5.60;;;5.05;;
1467;SDS011;727;48.892;9.544;2022-09-29T05:25:34;5.32;;;4.82;;
1467;SDS011;727;48.892;9.544;2022-09-29T05:28:02;9.00;;;4.30;;
1467;SDS011;727;48.892;9.544;2022-09-29T05:30:28;5.05;;;4.57;;
1467;SDS011;727;48.892;9.544;2022-09-29T05:32:55;4.93;;;4.10;;
1467;SDS011;727;48.892;9.544;2022-09-29T05:35:22;5.20;;;4.72;;
1467;SDS011;727;48.892;9.544;2022-09-29T05:37:49;6.13;;;5.38;;
1467;SDS011;727;48.892;9.544;2022-09-29T05:40:17;6.10;;;5.20;;
1467;SDS011;727;48.892;9.544;2022-09-29T05:42:44;5.60;;;4.60;;
1467;SDS011;727;48.892;9.544;2022-09-29T05:45:11;5.30;;;4.82;;
1467;SDS011;727;48.892;9.544;2022-09-29T05:47:39;5.38;;;4.68;;
1467;SDS011;727;48.892;9.544;2022-09-29T05:50:07;5.22;;;4.68;;
1467;SDS011;727;48.892;9.544;2022-09-29T05:52:35;7.35;;;4.82;;
1467;SDS011;727;48.892;9.544;2022-09-29T05:55:02;5.15;;;4.32;;
1467;SDS011;727;48.892;9.544;2022-09-29T05:57:30;11.10;;;4.78;;
1467;SDS011;727;48.892;9.544;2022-09-29T05:59:57;6.07;;;4.55;;
1467;SDS011;727;48.892;9.544;2022-09-29T06:02:23;4.57;;;4.18;;
1467;SDS011;727;48.892;9.544;2022-09-29T06:04:50;9.18;;;8.27;;
1467;SDS011;727;48.892;9.544;2022-09-29T06:07:17;7.88;;;7.18;;
1467;SDS011;727;48.892;9.544;2022-09-29T06:09:43;7.32;;;5.93;;
1467;SDS011;727;48.892;9.544;2022-09-29T06:12:11;9.85;;;6.28;;
1467;SDS011;727;48.892;9.544;2022-09-29T06:14:39;5.88;;;5.20;;
1467;SDS011;727;48.892;9.544;2022-09-29T06:17:06;5.38;;;4.93;;
1467;SDS011;727;48.892;9.544;2022-09-29T06:19:33;5.38;;;4.88;;
1467;SDS011;727;48.892;9.544;2022-09-29T06:21:59;7.78;;;5.82;;
1467;SDS011;727;48.892;9.544;2022-09-29T06:24:26;9.00;;;7.82;;
1467;SDS011;727;48.892;9.544;2022-09-29T06:26:53;10.70;;;8.60;;
1467;SDS011;727;48.892;9.544;2022-09-29T06:29:19;9.30;;;4.85;;
1467;SDS011;727;48.892;9.544;2022-09-29T06:31:49;8.23;;;4.78;;
1467;SDS011;727;48.892;9.544;2022-09-29T06:34:15;5.00;;;4.50;;
1467;SDS011;727;48.892;9.544;2022-09-29T06:36:44;4.70;;;4.28;;
1467;SDS011;727;48.892;9.544;2022-09-29T06:39:28;8.18;;;4.57;;
1467;SDS011;727;48.892;9.544;2022-09-29T06:41:55;5.55;;;4.30;;
1467;SDS011;727;48.892;9.544;2022-09-29T06:44:22;6.43;;;4.00;;
1467;SDS011;727;48.892;9.544;2022-09-29T06:46:53;4.80;;;4.00;;
1467;SDS011;727;48.892;9.544;2022-09-29T06:49:20;6.30;;;4.90;;
1467;SDS011;727;48.892;9.544;2022-09-29T06:51:48;5.85;;;3.90;;
1467;SDS011;727;48.892;9.544;2022-09-29T06:54:16;5.38;;;4.88;;
1467;SDS011;727;48.892;9.544;2022-09-29T06:56:45;5.45;;;4.95;;
1467;SDS011;727;48.892;9.544;2022-09-29T06:59:12;8.88;;;7.43;;
1467;SDS011;727;48.892;9.544;2022-09-29T07:01:39;12.15;;;7.32;;
1467;SDS011;727;48.892;9.544;2022-09-29T07:04:08;15.48;;;9.23;;
1467;SDS011;727;48.892;9.544;2022-09-29T07:06:35;9.02;;;6.13;;
1467;SDS011;727;48.892;9.544;2022-09-29T07:09:02;9.27;;;6.10;;
1467;SDS011;727;48.892;9.544;2022-09-29T07:11:28;6.82;;;6.13;;
1467;SDS011;727;48.892;9.544;2022-09-29T07:13:55;7.88;;;6.55;;
1467;SDS011;727;48.892;9.544;2022-09-29T07:16:22;7.60;;;5.78;;
1467;SDS011;727;48.892;9.544;2022-09-29T07:18:49;6.32;;;5.22;;
1467;SDS011;727;48.892;9.544;2022-09-29T07:21:18;8.93;;;6.57;;
1467;SDS011;727;48.892;9.544;2022-09-29T07:23:46;6.63;;;5.75;;
1467;SDS011;727;48.892;9.544;2022-09-29T07:26:13;6.45;;;5.85;;
1467;SDS011;727;48.892;9.544;2022-09-29T07:28:41;8.05;;;5.93;;
1467;SDS011;727;48.892;9.544;2022-09-29T07:31:09;10.98;;;6.72;;
1467;SDS011;727;48.892;9.544;2022-09-29T07:33:37;7.07;;;6.07;;
1467;SDS011;727;48.892;9.544;2022-09-29T07:36:04;7.00;;;5.43;;
1467;SDS011;727;48.892;9.544;2022-09-29T07:38:33;9.02;;;7.07;;
1467;SDS011;727;48.892;9.544;2022-09-29T07:41:00;13.80;;;11.95;;
1467;SDS011;727;48.892;9.544;2022-09-29T07:43:27;19.90;;;13.30;;
1467;SDS011;727;48.892;9.544;2022-09-29T07:45:55;7.88;;;6.80;;
1467;SDS011;727;48.892;9.544;2022-09-29T07:48:24;10.95;;;6.95;;
1467;SDS011;727;48.892;9.544;2022-09-29T07:50:51;11.48;;;7.18;;
1467;SDS011;727;48.892;9.544;2022-09-29T07:53:18;6.63;;;6.03;;
1467;SDS011;727;48.892;9.544;2022-09-29T07:55:46;6.68;;;5.93;;
1467;SDS011;727;48.892;9.544;2022-09-29T07:58:12;5.97;;;5.45;;
1467;SDS011;727;48.892;9.544;2022-09-29T08:00:39;7.65;;;6.30;;
1467;SDS011;727;48.892;9.544;2022-09-29T08:03:06;8.32;;;6.53;;
1467;SDS011;727;48.892;9.544;2022-09-29T08:05:33;8.60;;;7.80;;
1467;SDS011;727;48.892;9.544;2022-09-29T08:08:01;6.20;;;5.60;;
1467;SDS011;727;48.892;9.544;2022-09-29T08:10:29;6.88;;;6.18;;
1467;SDS011;727;48.892;9.544;2022-09-29T08:12:58;9.38;;;5.25;;
1467;SDS011;727;48.892;9.544;2022-09-29T08:15:25;6.20;;;5.22;;
1467;SDS011;727;48.892;9.544;2022-09-29T08:17:52;5.78;;;5.18;;
1467;SDS011;727;48.892;9.544;2022-09-29T08:20:19;8.05;;;5.25;;
1467;SDS011;727;48.892;9.544;2022-09-29T08:22:46;7.35;;;5.20;;
1467;SDS011;727;48.892;9.544;2022-09-29T08:25:13;7.90;;;5.93;;
1467;SDS011;727;48.892;9.544;2022-09-29T08:27:41;5.53;;;5.03;;
1467;SDS011;727;48.892;9.544;2022-09-29T08:30:10;7.10;;;4.63;;
1467;SDS011;727;48.892;9.544;2022-09-29T08:32:37;5.03;;;4.63;;
1467;SDS011;727;48.892;9.544;2022-09-29T08:35:04;9.65;;;4.88;;
1467;SDS011;727;48.892;9.544;2022-09-29T08:37:32;8.23;;;5.87;;
1467;SDS011;727;48.892;9.544;2022-09-29T08:39:58;7.93;;;4.60;;
1467;SDS011;727;48.892;9.544;2022-09-29T08:42:27;7.53;;;5.70;;
1467;SDS011;727;48.892;9.544;2022-09-29T08:45:03;6.40;;;4.43;;
1467;SDS011;727;48.892;9.544;2022-09-29T08:47:39;5.77;;;5.00;;
1467;SDS011;727;48.892;9.544;2022-09-29T08:50:10;4.53;;;4.13;;
1467;SDS011;727;48.892;9.544;2022-09-29T08:52:39;5.70;;;5.20;;
1467;SDS011;727;48.892;9.544;2022-09-29T08:55:25;5.27;;;4.00;;
1467;SDS011;727;48.892;9.544;2022-09-29T08:58:00;5.87;;;3.80;;
1467;SDS011;727;48.892;9.544;2022-09-29T09:00:30;3.83;;;3.53;;
1467;SDS011;727;48.892;9.544;2022-09-29T09:03:10;3.83;;;3.53;;
1467;SDS011;727;48.892;9.544;2022-09-29T09:05:47;4.70;;;4.00;;
1467;SDS011;727;48.892;9.544;2022-09-29T09:08:31;4.20;;;3.80;;
1467;SDS011;727;48.892;9.544;2022-09-29T09:11:07;6.00;;;4.00;;
1467;SDS011;727;48.892;9.544;2022-09-29T09:13:52;3.30;;;3.10;;
1467;SDS011;727;48.892;9.544;2022-09-29T09:16:32;6.17;;;3.07;;
1467;SDS011;727;48.892;9.544;2022-09-29T09:22:04;3.53;;;2.70;;
1467;SDS011;727;48.892;9.544;2022-09-29T09:24:51;3.03;;;2.30;;
1467;SDS011;727;48.892;9.544;2022-09-29T09:27:23;3.30;;;2.20;;
1467;SDS011;727;48.892;9.544;2022-09-29T09:29:55;2.47;;;1.80;;
1467;SDS011;727;48.892;9.544;2022-09-29T09:32:27;3.53;;;2.20;;
1467;SDS011;727;48.892;9.544;2022-09-29T09:35:03;11.03;;;1.67;;
1467;SDS011;727;48.892;9.544;2022-09-29T09:37:38;2.00;;;1.70;;
1467;SDS011;727;48.892;9.544;2022-09-29T09:40:10;2.07;;;1.60;;
1467;SDS011;727;48.892;9.544;2022-09-29T09:42:49;4.60;;;2.20;;
1467;SDS011;727;48.892;9.544;2022-09-29T09:45:22;2.10;;;1.90;;
1467;SDS011;727;48.892;9.544;2022-09-29T09:47:54;4.03;;;1.83;;
1467;SDS011;727;48.892;9.544;2022-09-29T09:50:28;3.50;;;2.63;;
1467;SDS011;727;48.892;9.544;2022-09-29T09:52:56;2.57;;;1.80;;
1467;SDS011;727;48.892;9.544;2022-09-29T09:55:28;3.27;;;1.87;;
1467;SDS011;727;48.892;9.544;2022-09-29T10:00:56;7.23;;;2.73;;
1467;SDS011;727;48.892;9.544;2022-09-29T10:03:26;3.30;;;2.57;;
1467;SDS011;727;48.892;9.544;2022-09-29T10:05:55;2.67;;;2.43;;
1467;SDS011;727;48.892;9.544;2022-09-29T10:08:23;2.87;;;2.50;;
1467;SDS011;727;48.892;9.544;2022-09-29T10:10:52;2.43;;;2.23;;
1467;SDS011;727;48.892;9.544;2022-09-29T10:13:19;6.53;;;2.73;;
1467;SDS011;727;48.892;9.544;2022-09-29T10:15:46;3.23;;;2.93;;
1467;SDS011;727;48.892;9.544;2022-09-29T10:18:19;4.23;;;2.17;;
1467;SDS011;727;48.892;9.544;2022-09-29T10:20:49;5.70;;;1.97;;
1467;SDS011;727;48.892;9.544;2022-09-29T10:23:24;9.80;;;3.37;;
1467;SDS011;727;48.892;9.544;2022-09-29T10:25:53;2.30;;;2.03;;
1467;SDS011;727;48.892;9.544;2022-09-29T10:28:23;2.13;;;1.57;;
1467;SDS011;727;48.892;9.544;2022-09-29T10:30:52;3.23;;;2.30;;
1467;SDS011;727;48.892;9.544;2022-09-29T10:33:20;3.47;;;2.40;;
1467;SDS011;727;48.892;9.544;2022-09-29T10:35:50;5.77;;;1.67;;
1467;SDS011;727;48.892;9.544;2022-09-29T10:38:34;6.43;;;1.90;;
1467;SDS011;727;48.892;9.544;2022-09-29T10:41:02;1.73;;;1.37;;
1467;SDS011;727;48.892;9.544;2022-09-29T10:43:33;2.13;;;1.80;;
1467;SDS011;727;48.892;9.544;2022-09-29T10:46:03;1.70;;;1.60;;
1467;SDS011;727;48.892;9.544;2022-09-29T10:48:30;2.37;;;1.30;;
1467;SDS011;727;48.892;9.544;2022-09-29T10:50:58;2.17;;;1.97;;
1467;SDS011;727;48.892;9.544;2022-09-29T10:53:32;4.30;;;2.97;;
1467;SDS011;727;48.892;9.544;2022-09-29T10:56:06;5.17;;;1.90;;
1467;SDS011;727;48.892;9.544;2022-09-29T10:58:40;2.93;;;1.97;;
1467;SDS011;727;48.892;9.544;2022-09-29T11:01:10;3.10;;;1.70;;
1467;SDS011;727;48.892;9.544;2022-09-29T11:03:39;3.77;;;1.73;;
1467;SDS011;727;48.892;9.544;2022-09-29T11:06:12;2.10;;;1.53;;
1467;SDS011;727;48.892;9.544;2022-09-29T11:08:57;3.27;;;2.27;;
1467;SDS011;727;48.892;9.544;2022-09-29T11:11:26;1.30;;;1.20;;
1467;SDS011;727;48.892;9.544;2022-09-29T11:13:55;2.80;;;1.37;;
1467;SDS011;727;48.892;9.544;2022-09-29T11:16:25;1.77;;;1.40;;
1467;SDS011;727;48.892;9.544;2022-09-29T11:18:54;5.03;;;1.83;;
1467;SDS011;727;48.892;9.544;2022-09-29T11:21:40;2.40;;;1.30;;
1467;SDS011;727;48.892;9.544;2022-09-29T11:27:25;2.23;;;1.30;;
1467;SDS011;727;48.892;9.544;2022-09-29T11:30:04;1.50;;;1.37;;
1467;SDS011;727;48.892;9.544;2022-09-29T11:32:39;1.40;;;1.30;;
1467;SDS011;727;48.892;9.544;2022-09-29T11:35:23;3.80;;;1.70;;
1467;SDS011;727;48.892;9.544;2022-09-29T11:41:01;2.43;;;1.70;;
1467;SDS011;727;48.892;9.544;2022-09-29T11:43:42;6.37;;;2.27;;
1467;SDS011;727;48.892;9.544;2022-09-29T11:46:26;1.20;;;1.10;;
1467;SDS011;727;48.892;9.544;2022-09-29T11:49:17;1.40;;;1.30;;
1467;SDS011;727;48.892;9.544;2022-09-29T11:55:10;2.30;;;0.97;;
1467;SDS011;727;48.892;9.544;2022-09-29T11:57:48;3.73;;;2.13;;
1467;SDS011;727;48.892;9.544;2022-09-29T12:00:25;2.63;;;1.67;;
1467;SDS011;727;48.892;9.544;2022-09-29T12:03:12;4.20;;;2.20;;
1467;SDS011;727;48.892;9.544;2022-09-29T12:05:52;2.27;;;1.40;;
1467;SDS011;727;48.892;9.544;2022-09-29T12:08:36;2.73;;;1.47;;
1467;SDS011;727;48.892;9.544;2022-09-29T12:11:19;1.47;;;1.20;;
1467;SDS011;727;48.892;9.544;2022-09-29T12:13:54;3.53;;;1.47;;
1467;SDS011;727;48.892;9.544;2022-09-29T12:16:31;1.73;;;0.90;;
1467;SDS011;727;48.892;9.544;2022-09-29T12:19:02;2.50;;;1.40;;
1467;SDS011;727;48.892;9.544;2022-09-29T12:21:33;1.73;;;1.40;;
1467;SDS011;727;48.892;9.544;2022-09-29T12:24:03;2.40;;;1.47;;
1467;SDS011;727;48.892;9.544;2022-09-29T12:26:35;2.80;;;1.70;;
1467;SDS011;727;48.892;9.544;2022-09-29T12:29:06;1.50;;;1.40;;
1467;SDS011;727;48.892;9.544;2022-09-29T12:31:51;6.97;;;1.70;;
1467;SDS011;727;48.892;9.544;2022-09-29T12:34:22;1.63;;;1.53;;
1467;SDS011;727;48.892;9.544;2022-09-29T12:36:57;3.30;;;1.77;;
1467;SDS011;727;48.892;9.544;2022-09-29T12:39:33;1.70;;;1.10;;
1467;SDS011;727;48.892;9.544;2022-09-29T12:42:14;4.43;;;1.30;;
1467;SDS011;727;48.892;9.544;2022-09-29T12:44:48;2.83;;;1.30;;
1467;SDS011;727;48.892;9.544;2022-09-29T12:47:24;3.43;;;2.40;;
1467;SDS011;727;48.892;9.544;2022-09-29T12:50:01;1.70;;;1.40;;
1467;SDS011;727;48.892;9.544;2022-09-29T12:52:33;2.83;;;1.60;;
1467;SDS011;727;48.892;9.544;2022-09-29T12:55:13;3.37;;;1.53;;
1467;SDS011;727;48.892;9.544;2022-09-29T12:57:43;2.00;;;1.37;;
1467;SDS011;727;48.892;9.544;2022-09-29T13:00:15;2.00;;;1.77;;
1467;SDS011;727;48.892;9.544;2022-09-29T13:06:06;1.50;;;1.40;;
1467;SDS011;727;48.892;9.544;2022-09-29T13:08:57;1.70;;;1.60;;
1467;SDS011;727;48.892;9.544;2022-09-29T13:11:39;2.10;;;1.27;;
1467;SDS011;727;48.892;9.544;2022-09-29T13:14:32;2.60;;;1.50;;
1467;SDS011;727;48.892;9.544;2022-09-29T13:17:15;2.50;;;1.70;;
1467;SDS011;727;48.892;9.544;2022-09-29T13:19:59;2.17;;;1.80;;
1467;SDS011;727;48.892;9.544;2022-09-29T13:22:45;4.17;;;2.17;;
1467;SDS011;727;48.892;9.544;2022-09-29T13:25:30;5.03;;;1.17;;
1467;SDS011;727;48.892;9.544;2022-09-29T13:28:01;4.70;;;1.67;;
1467;SDS011;727;48.892;9.544;2022-09-29T13:30:46;3.93;;;2.00;;
1467;SDS011;727;48.892;9.544;2022-09-29T13:33:15;5.30;;;2.70;;
1467;SDS011;727;48.892;9.544;2022-09-29T13:35:47;3.73;;;1.50;;
1467;SDS011;727;48.892;9.544;2022-09-29T13:38:15;2.90;;;1.80;;
1467;SDS011;727;48.892;9.544;2022-09-29T13:43:38;1.70;;;1.40;;
1467;SDS011;727;48.892;9.544;2022-09-29T13:49:03;2.20;;;1.30;;
1467;SDS011;727;48.892;9.544;2022-09-29T13:51:42;5.33;;;1.17;;
1467;SDS011;727;48.892;9.544;2022-09-29T13:54:28;1.10;;;1.00;;
1467;SDS011;727;48.892;9.544;2022-09-29T14:05:57;3.70;;;1.57;;
1467;SDS011;727;48.892;9.544;2022-09-29T14:08:36;0.90;;;0.90;;
1467;SDS011;727;48.892;9.544;2022-09-29T14:11:17;3.37;;;1.53;;
1467;SDS011;727;48.892;9.544;2022-09-29T14:13:52;1.67;;;1.40;;
1467;SDS011;727;48.892;9.544;2022-09-29T14:16:29;2.47;;;1.50;;
1467;SDS011;727;48.892;9.544;2022-09-29T14:19:05;2.20;;;1.00;;
1467;SDS011;727;48.892;9.544;2022-09-29T14:21:52;2.50;;;0.97;;
1467;SDS011;727;48.892;9.544;2022-09-29T14:27:28;2.50;;;0.97;;
1467;SDS011;727;48.892;9.544;2022-09-29T14:30:05;2.10;;;1.40;;
1467;SDS011;727;48.892;9.544;2022-09-29T14:32:42;1.70;;;1.10;;
1467;SDS011;727;48.892;9.544;2022-09-29T14:35:17;1.20;;;1.10;;
1467;SDS011;727;48.892;9.544;2022-09-29T14:37:59;3.93;;;1.07;;
1467;SDS011;727;48.892;9.544;2022-09-29T14:40:32;2.97;;;1.33;;
1467;SDS011;727;48.892;9.544;2022-09-29T14:43:03;1.23;;;1.13;;
1467;SDS011;727;48.892;9.544;2022-09-29T14:45:40;1.03;;;1.00;;
1467;SDS011;727;48.892;9.544;2022-09-29T14:48:38;1.53;;;1.10;;
1467;SDS011;727;48.892;9.544;2022-09-29T14:51:36;1.43;;;1.13;;
1467;SDS011;727;48.892;9.544;2022-09-29T14:54:27;6.27;;;1.27;;
1467;SDS011;727;48.892;9.544;2022-09-29T14:57:05;1.80;;;1.03;;
1467;SDS011;727;48.892;9.544;2022-09-29T14:59:52;4.83;;;1.50;;
1467;SDS011;727;48.892;9.544;2022-09-29T15:02:27;1.70;;;1.40;;
1467;SDS011;727;48.892;9.544;2022-09-29T15:04:56;3.30;;;1.30;;
1467;SDS011;727;48.892;9.544;2022-09-29T15:07:38;1.30;;;1.20;;
1467;SDS011;727;48.892;9.544;2022-09-29T15:10:18;6.03;;;1.20;;
1467;SDS011;727;48.892;9.544;2022-09-29T15:12:48;1.97;;;1.47;;
1467;SDS011;727;48.892;9.544;2022-09-29T15:15:27;1.77;;;1.47;;
1467;SDS011;727;48.892;9.544;2022-09-29T15:17:58;4.63;;;1.53;;
1467;SDS011;727;48.892;9.544;2022-09-29T15:20:32;2.50;;;1.30;;
1467;SDS011;727;48.892;9.544;2022-09-29T15:23:21;2.77;;;1.17;;
1467;SDS011;727;48.892;9.544;2022-09-29T15:26:19;4.23;;;1.73;;
1467;SDS011;727;48.892;9.544;2022-09-29T15:28:46;1.57;;;1.30;;
1467;SDS011;727;48.892;9.544;2022-09-29T15:31:15;1.73;;;1.20;;
1467;SDS011;727;48.892;9.544;2022-09-29T15:33:54;2.87;;;1.93;;
1467;SDS011;727;48.892;9.544;2022-09-29T15:36:28;2.43;;;1.57;;
1467;SDS011;727;48.892;9.544;2022-09-29T15:54:02;3.80;;;1.50;;
1467;SDS011;727;48.892;9.544;2022-09-29T15:56:34;1.67;;;1.57;;
1467;SDS011;727;48.892;9.544;2022-09-29T15:59:30;2.97;;;1.53;;
1467;SDS011;727;48.892;9.544;2022-09-29T16:02:10;3.60;;;1.80;;
1467;SDS011;727;48.892;9.544;2022-09-29T16:04:53;3.53;;;1.83;;
1467;SDS011;727;48.892;9.544;2022-09-29T16:07:23;2.07;;;1.50;;
1467;SDS011;727;48.892;9.544;2022-09-29T16:09:56;2.90;;;1.53;;
1467;SDS011;727;48.892;9.544;2022-09-29T16:12:26;1.90;;;1.80;;
1467;SDS011;727;48.892;9.544;2022-09-29T16:15:01;1.50;;;1.40;;
1467;SDS011;727;48.892;9.544;2022-09-29T16:17:28;2.73;;;2.53;;
1467;SDS011;727;48.892;9.544;2022-09-29T16:19:56;2.90;;;2.07;;
1467;SDS011;727;48.892;9.544;2022-09-29T16:22:27;7.03;;;2.50;;
1467;SDS011;727;48.892;9.544;2022-09-29T16:24:56;1.73;;;1.63;;
1467;SDS011;727;48.892;9.544;2022-09-29T16:27:37;2.43;;;1.47;;
1467;SDS011;727;48.892;9.544;2022-09-29T16:30:16;3.47;;;2.03;;
1467;SDS011;727;48.892;9.544;2022-09-29T16:32:45;2.70;;;2.20;;
1467;SDS011;727;48.892;9.544;2022-09-29T16:38:17;2.77;;;2.00;;
1467;SDS011;727;48.892;9.544;2022-09-29T16:41:09;6.13;;;2.40;;
1467;SDS011;727;48.892;9.544;2022-09-29T16:43:46;6.17;;;3.00;;
1467;SDS011;727;48.892;9.544;2022-09-29T16:46:15;2.20;;;2.00;;
1467;SDS011;727;48.892;9.544;2022-09-29T16:48:45;2.77;;;1.90;;
1467;SDS011;727;48.892;9.544;2022-09-29T16:51:15;1.60;;;1.50;;
1467;SDS011;727;48.892;9.544;2022-09-29T16:53:45;3.80;;;1.80;;
1467;SDS011;727;48.892;9.544;2022-09-29T16:56:17;2.10;;;1.77;;
1467;SDS011;727;48.892;9.544;2022-09-29T16:59:01;1.50;;;1.40;;